sensor_id;sensor_type;location;lat;lon;timestamp;temperature;humidity
17425;DHT22;8830;50.978;5.058;2023-03-14T00:00:06;12.00;99.90
17425;DHT22;8830;50.978;5.058;2023-03-14T00:02:35;12.00;99.90
17425;DHT22;8830;50.978;5.058;2023-03-14T00:05:03;11.90;99.90
17425;DHT22;8830;50.978;5.058;2023-03-14T00:07:33;11.80;99.90
17425;DHT22;8830;50.978;5.058;2023-03-14T00:10:02;11.80;99.90
17425;DHT22;8830;50.978;5.058;2023-03-14T00:12:30;11.80;99.90
17425;DHT22;8830;50.978;5.058;2023-03-14T00:14:58;11.70;99.90
17425;DHT22;8830;50.978;5.058;2023-03-14T00:17:25;11.80;99.90
17425;DHT22;8830;50.978;5.058;2023-03-14T00:19:54;11.80;99.90
17425;DHT22;8830;50.978;5.058;2023-03-14T00:22:21;11.90;99.90
17425;DHT22;8830;50.978;5.058;2023-03-14T00:24:48;11.80;99.90
17425;DHT22;8830;50.978;5.058;2023-03-14T00:27:15;11.80;99.90
17425;DHT22;8830;50.978;5.058;2023-03-14T00:29:42;11.80;99.90
17425;DHT22;8830;50.978;5.058;2023-03-14T00:32:10;11.70;99.90
17425;DHT22;8830;50.978;5.058;2023-03-14T00:34:37;11.60;99.90
17425;DHT22;8830;50.978;5.058;2023-03-14T00:37:06;11.70;99.90
17425;DHT22;8830;50.978;5.058;2023-03-14T00:39:33;11.60;99.90
17425;DHT22;8830;50.978;5.058;2023-03-14T00:42:00;11.60;99.90
17425;DHT22;8830;50.978;5.058;2023-03-14T00:44:27;11.60;99.90
17425;DHT22;8830;50.978;5.058;2023-03-14T00:46:54;11.70;99.90
17425;DHT22;8830;50.978;5.058;2023-03-14T00:49:22;11.60;99.90
17425;DHT22;8830;50.978;5.058;2023-03-14T00:51:49;11.60;99.90
17425;DHT22;8830;50.978;5.058;2023-03-14T00:54:18;11.50;99.90
17425;DHT22;8830;50.978;5.058;2023-03-14T00:56:45;12.30;99.90
17425;DHT22;8830;50.978;5.058;2023-03-14T00:59:12;11.40;99.90
17425;DHT22;8830;50.978;5.058;2023-03-14T01:01:41;12.30;99.90
17425;DHT22;8830;50.978;5.058;2023-03-14T01:04:08;11.30;99.90
17425;DHT22;8830;50.978;5.058;2023-03-14T01:06:35;11.30;99.90
17425;DHT22;8830;50.978;5.058;2023-03-14T01:09:03;11.30;99.90
17425;DHT22;8830;50.978;5.058;2023-03-14T01:11:33;11.20;99.90
17425;DHT22;8830;50.978;5.058;2023-03-14T01:14:02;12.10;99.90
17425;DHT22;8830;50.978;5.058;2023-03-14T01:16:31;11.20;99.90
17425;DHT22;8830;50.978;5.058;2023-03-14T01:18:58;11.10;99.90
17425;DHT22;8830;50.978;5.058;2023-03-14T01:21:27;11.10;99.90
17425;DHT22;8830;50.978;5.058;2023-03-14T01:23:56;11.10;99.90
17425;DHT22;8830;50.978;5.058;2023-03-14T01:26:25;11.10;99.90
17425;DHT22;8830;50.978;5.058;2023-03-14T01:28:55;11.10;99.90
17425;DHT22;8830;50.978;5.058;2023-03-14T01:31:22;11.10;99.90
17425;DHT22;8830;50.978;5.058;2023-03-14T01:33:50;11.00;99.90
17425;DHT22;8830;50.978;5.058;2023-03-14T01:36:17;11.50;99.90
17425;DHT22;8830;50.978;5.058;2023-03-14T01:38:44;11.00;99.90
17425;DHT22;8830;50.978;5.058;2023-03-14T01:41:14;11.00;99.90
17425;DHT22;8830;50.978;5.058;2023-03-14T01:43:41;11.10;99.90
17425;DHT22;8830;50.978;5.058;2023-03-14T01:46:25;11.10;99.90
17425;DHT22;8830;50.978;5.058;2023-03-14T01:48:57;11.10;99.90
17425;DHT22;8830;50.978;5.058;2023-03-14T01:51:30;11.10;99.90
17425;DHT22;8830;50.978;5.058;2023-03-14T01:54:04;11.20;99.90
17425;DHT22;8830;50.978;5.058;2023-03-14T01:56:33;11.10;99.90
17425;DHT22;8830;50.978;5.058;2023-03-14T01:59:04;11.10;99.90
17425;DHT22;8830;50.978;5.058;2023-03-14T02:01:34;11.10;99.90
17425;DHT22;8830;50.978;5.058;2023-03-14T02:04:04;11.00;99.90
17425;DHT22;8830;50.978;5.058;2023-03-14T02:06:40;10.90;99.90
17425;DHT22;8830;50.978;5.058;2023-03-14T02:09:10;10.90;99.90
17425;DHT22;8830;50.978;5.058;2023-03-14T02:11:37;10.90;99.90
17425;DHT22;8830;50.978;5.058;2023-03-14T02:14:04;10.80;99.90
17425;DHT22;8830;50.978;5.058;2023-03-14T02:16:33;10.80;99.90
17425;DHT22;8830;50.978;5.058;2023-03-14T02:19:00;10.70;99.90
17425;DHT22;8830;50.978;5.058;2023-03-14T02:21:38;10.70;99.90
17425;DHT22;8830;50.978;5.058;2023-03-14T02:24:15;10.70;99.90
17425;DHT22;8830;50.978;5.058;2023-03-14T02:29:28;10.80;99.90
17425;DHT22;8830;50.978;5.058;2023-03-14T02:31:55;10.80;99.90
17425;DHT22;8830;50.978;5.058;2023-03-14T02:34:23;10.70;99.90
17425;DHT22;8830;50.978;5.058;2023-03-14T02:36:52;10.80;99.90
17425;DHT22;8830;50.978;5.058;2023-03-14T02:39:23;10.70;99.90
17425;DHT22;8830;50.978;5.058;2023-03-14T02:41:51;10.60;99.90
17425;DHT22;8830;50.978;5.058;2023-03-14T02:44:18;10.50;99.90
17425;DHT22;8830;50.978;5.058;2023-03-14T02:46:46;10.40;99.90
17425;DHT22;8830;50.978;5.058;2023-03-14T02:49:14;10.30;99.90
17425;DHT22;8830;50.978;5.058;2023-03-14T02:51:43;10.30;99.90
17425;DHT22;8830;50.978;5.058;2023-03-14T02:54:11;10.70;99.90
17425;DHT22;8830;50.978;5.058;2023-03-14T02:56:39;10.10;99.90
17425;DHT22;8830;50.978;5.058;2023-03-14T02:59:06;10.10;99.90
17425;DHT22;8830;50.978;5.058;2023-03-14T03:01:34;10.10;99.90
17425;DHT22;8830;50.978;5.058;2023-03-14T03:04:02;10.10;99.90
17425;DHT22;8830;50.978;5.058;2023-03-14T03:06:29;10.10;99.90
17425;DHT22;8830;50.978;5.058;2023-03-14T03:08:57;10.10;99.90
17425;DHT22;8830;50.978;5.058;2023-03-14T03:11:23;10.20;99.90
17425;DHT22;8830;50.978;5.058;2023-03-14T03:13:50;10.20;99.90
17425;DHT22;8830;50.978;5.058;2023-03-14T03:16:17;10.30;99.90
17425;DHT22;8830;50.978;5.058;2023-03-14T03:18:44;10.30;99.90
17425;DHT22;8830;50.978;5.058;2023-03-14T03:21:12;10.30;99.90
17425;DHT22;8830;50.978;5.058;2023-03-14T03:23:39;10.30;99.90
17425;DHT22;8830;50.978;5.058;2023-03-14T03:26:08;10.40;99.90
17425;DHT22;8830;50.978;5.058;2023-03-14T03:28:35;10.40;99.90
17425;DHT22;8830;50.978;5.058;2023-03-14T03:31:07;10.40;99.90
17425;DHT22;8830;50.978;5.058;2023-03-14T03:33:34;10.40;99.90
17425;DHT22;8830;50.978;5.058;2023-03-14T03:36:00;10.40;99.90
17425;DHT22;8830;50.978;5.058;2023-03-14T03:38:29;10.50;99.90
17425;DHT22;8830;50.978;5.058;2023-03-14T03:40:56;10.40;99.90
17425;DHT22;8830;50.978;5.058;2023-03-14T03:43:23;10.40;99.90
17425;DHT22;8830;50.978;5.058;2023-03-14T03:45:50;10.40;99.90
17425;DHT22;8830;50.978;5.058;2023-03-14T03:48:17;10.30;99.90
17425;DHT22;8830;50.978;5.058;2023-03-14T03:50:44;10.20;99.90
17425;DHT22;8830;50.978;5.058;2023-03-14T03:53:11;10.20;99.90
17425;DHT22;8830;50.978;5.058;2023-03-14T03:55:42;10.20;99.90
17425;DHT22;8830;50.978;5.058;2023-03-14T03:58:09;10.30;99.90
17425;DHT22;8830;50.978;5.058;2023-03-14T04:00:36;10.30;99.90
17425;DHT22;8830;50.978;5.058;2023-03-14T04:03:03;10.30;99.90
17425;DHT22;8830;50.978;5.058;2023-03-14T04:05:30;10.30;99.90
17425;DHT22;8830;50.978;5.058;2023-03-14T04:07:57;10.30;99.90
17425;DHT22;8830;50.978;5.058;2023-03-14T04:10:24;10.30;99.90
17425;DHT22;8830;50.978;5.058;2023-03-14T04:12:52;10.30;99.90
17425;DHT22;8830;50.978;5.058;2023-03-14T04:15:19;10.50;99.90
17425;DHT22;8830;50.978;5.058;2023-03-14T04:17:46;10.40;99.90
17425;DHT22;8830;50.978;5.058;2023-03-14T04:20:13;10.30;99.90
17425;DHT22;8830;50.978;5.058;2023-03-14T04:22:40;10.30;99.90
17425;DHT22;8830;50.978;5.058;2023-03-14T04:25:07;10.30;99.90
17425;DHT22;8830;50.978;5.058;2023-03-14T04:27:35;10.30;99.90
17425;DHT22;8830;50.978;5.058;2023-03-14T04:30:04;10.30;99.90
17425;DHT22;8830;50.978;5.058;2023-03-14T04:32:31;10.30;99.90
17425;DHT22;8830;50.978;5.058;2023-03-14T04:34:57;10.40;99.90
17425;DHT22;8830;50.978;5.058;2023-03-14T04:37:24;10.40;99.90
17425;DHT22;8830;50.978;5.058;2023-03-14T04:39:51;10.40;99.90
17425;DHT22;8830;50.978;5.058;2023-03-14T04:42:18;10.40;99.90
17425;DHT22;8830;50.978;5.058;2023-03-14T04:44:45;10.40;99.90
17425;DHT22;8830;50.978;5.058;2023-03-14T04:47:16;10.40;99.90
17425;DHT22;8830;50.978;5.058;2023-03-14T04:49:43;10.40;99.90
17425;DHT22;8830;50.978;5.058;2023-03-14T04:52:10;10.40;99.90
17425;DHT22;8830;50.978;5.058;2023-03-14T04:54:37;10.40;99.90
17425;DHT22;8830;50.978;5.058;2023-03-14T04:57:03;10.40;99.90
17425;DHT22;8830;50.978;5.058;2023-03-14T04:59:30;10.40;99.90
17425;DHT22;8830;50.978;5.058;2023-03-14T05:01:57;10.40;99.90
17425;DHT22;8830;50.978;5.058;2023-03-14T05:04:26;10.50;99.90
17425;DHT22;8830;50.978;5.058;2023-03-14T05:06:53;10.40;99.90
17425;DHT22;8830;50.978;5.058;2023-03-14T05:09:20;11.10;99.90
17425;DHT22;8830;50.978;5.058;2023-03-14T05:11:47;10.50;99.90
17425;DHT22;8830;50.978;5.058;2023-03-14T05:14:14;10.40;99.90
17425;DHT22;8830;50.978;5.058;2023-03-14T05:16:41;10.40;99.90
17425;DHT22;8830;50.978;5.058;2023-03-14T05:19:08;10.50;99.90
17425;DHT22;8830;50.978;5.058;2023-03-14T05:21:36;10.40;99.90
17425;DHT22;8830;50.978;5.058;2023-03-14T05:24:04;10.40;99.90
17425;DHT22;8830;50.978;5.058;2023-03-14T05:26:31;10.40;99.90
17425;DHT22;8830;50.978;5.058;2023-03-14T05:28:58;10.50;99.90
17425;DHT22;8830;50.978;5.058;2023-03-14T05:31:25;10.50;99.90
17425;DHT22;8830;50.978;5.058;2023-03-14T05:33:52;10.50;99.90
17425;DHT22;8830;50.978;5.058;2023-03-14T05:36:18;10.50;99.90
17425;DHT22;8830;50.978;5.058;2023-03-14T05:38:47;10.60;99.90
17425;DHT22;8830;50.978;5.058;2023-03-14T05:41:14;10.60;99.90
17425;DHT22;8830;50.978;5.058;2023-03-14T05:43:41;10.60;99.90
17425;DHT22;8830;50.978;5.058;2023-03-14T05:46:08;11.00;99.90
17425;DHT22;8830;50.978;5.058;2023-03-14T05:48:35;10.70;99.90
17425;DHT22;8830;50.978;5.058;2023-03-14T05:51:02;10.50;99.90
17425;DHT22;8830;50.978;5.058;2023-03-14T05:53:29;10.50;99.90
17425;DHT22;8830;50.978;5.058;2023-03-14T05:55:57;10.60;99.90
17425;DHT22;8830;50.978;5.058;2023-03-14T05:58:24;10.60;99.90
17425;DHT22;8830;50.978;5.058;2023-03-14T06:00:51;10.60;99.90
17425;DHT22;8830;50.978;5.058;2023-03-14T06:03:18;10.70;99.90
17425;DHT22;8830;50.978;5.058;2023-03-14T06:05:45;10.70;99.90
17425;DHT22;8830;50.978;5.058;2023-03-14T06:08:12;10.70;99.90
17425;DHT22;8830;50.978;5.058;2023-03-14T06:10:39;10.80;99.90
17425;DHT22;8830;50.978;5.058;2023-03-14T06:13:08;10.60;99.90
17425;DHT22;8830;50.978;5.058;2023-03-14T06:15:35;10.70;99.90
17425;DHT22;8830;50.978;5.058;2023-03-14T06:18:02;10.70;99.90
17425;DHT22;8830;50.978;5.058;2023-03-14T06:20:29;10.80;99.90
17425;DHT22;8830;50.978;5.058;2023-03-14T06:22:56;10.80;99.90
17425;DHT22;8830;50.978;5.058;2023-03-14T06:25:23;11.30;99.90
17425;DHT22;8830;50.978;5.058;2023-03-14T06:27:50;10.80;99.90
17425;DHT22;8830;50.978;5.058;2023-03-14T06:30:19;10.90;99.90
17425;DHT22;8830;50.978;5.058;2023-03-14T06:32:45;10.90;99.90
17425;DHT22;8830;50.978;5.058;2023-03-14T06:35:12;10.90;99.90
17425;DHT22;8830;50.978;5.058;2023-03-14T06:37:39;11.00;99.90
17425;DHT22;8830;50.978;5.058;2023-03-14T06:40:07;11.00;99.90
17425;DHT22;8830;50.978;5.058;2023-03-14T06:42:35;11.10;99.90
17425;DHT22;8830;50.978;5.058;2023-03-14T06:45:02;11.10;99.90
17425;DHT22;8830;50.978;5.058;2023-03-14T06:47:30;11.20;99.90
17425;DHT22;8830;50.978;5.058;2023-03-14T06:49:57;11.30;99.90
17425;DHT22;8830;50.978;5.058;2023-03-14T06:52:24;11.30;99.90
17425;DHT22;8830;50.978;5.058;2023-03-14T06:54:51;11.40;99.90
17425;DHT22;8830;50.978;5.058;2023-03-14T06:57:18;11.40;99.90
17425;DHT22;8830;50.978;5.058;2023-03-14T06:59:45;11.30;99.90
17425;DHT22;8830;50.978;5.058;2023-03-14T07:02:12;11.60;99.90
17425;DHT22;8830;50.978;5.058;2023-03-14T07:04:42;11.40;99.90
17425;DHT22;8830;50.978;5.058;2023-03-14T07:07:09;11.50;99.90
17425;DHT22;8830;50.978;5.058;2023-03-14T07:09:36;11.40;99.90
17425;DHT22;8830;50.978;5.058;2023-03-14T07:12:03;11.40;99.90
17425;DHT22;8830;50.978;5.058;2023-03-14T07:14:30;11.30;99.90
17425;DHT22;8830;50.978;5.058;2023-03-14T07:16:58;11.30;99.90
17425;DHT22;8830;50.978;5.058;2023-03-14T07:19:25;11.30;99.90
17425;DHT22;8830;50.978;5.058;2023-03-14T07:21:54;11.30;99.90
17425;DHT22;8830;50.978;5.058;2023-03-14T07:24:21;11.40;99.90
17425;DHT22;8830;50.978;5.058;2023-03-14T07:26:48;11.30;99.90
17425;DHT22;8830;50.978;5.058;2023-03-14T07:29:15;11.30;99.90
17425;DHT22;8830;50.978;5.058;2023-03-14T07:31:42;11.20;99.90
17425;DHT22;8830;50.978;5.058;2023-03-14T07:34:10;11.30;99.90
17425;DHT22;8830;50.978;5.058;2023-03-14T07:36:38;10.90;99.90
17425;DHT22;8830;50.978;5.058;2023-03-14T07:39:07;10.20;99.90
17425;DHT22;8830;50.978;5.058;2023-03-14T07:41:34;10.10;99.90
17425;DHT22;8830;50.978;5.058;2023-03-14T07:44:01;10.00;99.90
17425;DHT22;8830;50.978;5.058;2023-03-14T07:46:28;9.80;99.90
17425;DHT22;8830;50.978;5.058;2023-03-14T07:48:55;9.80;99.90
17425;DHT22;8830;50.978;5.058;2023-03-14T07:51:23;9.80;99.90
17425;DHT22;8830;50.978;5.058;2023-03-14T07:53:49;9.80;99.90
17425;DHT22;8830;50.978;5.058;2023-03-14T07:56:18;9.80;99.90
17425;DHT22;8830;50.978;5.058;2023-03-14T07:58:45;9.70;99.90
17425;DHT22;8830;50.978;5.058;2023-03-14T08:01:11;9.60;99.90
17425;DHT22;8830;50.978;5.058;2023-03-14T08:03:39;9.50;99.90
17425;DHT22;8830;50.978;5.058;2023-03-14T08:06:06;9.60;99.90
17425;DHT22;8830;50.978;5.058;2023-03-14T08:08:33;9.40;99.90
17425;DHT22;8830;50.978;5.058;2023-03-14T08:11:03;10.40;99.90
17425;DHT22;8830;50.978;5.058;2023-03-14T08:13:31;9.30;99.90
17425;DHT22;8830;50.978;5.058;2023-03-14T08:15:58;10.30;99.90
17425;DHT22;8830;50.978;5.058;2023-03-14T08:18:25;9.10;99.90
17425;DHT22;8830;50.978;5.058;2023-03-14T08:20:52;9.00;99.90
17425;DHT22;8830;50.978;5.058;2023-03-14T08:23:19;9.10;99.90
17425;DHT22;8830;50.978;5.058;2023-03-14T08:25:48;9.10;99.90
17425;DHT22;8830;50.978;5.058;2023-03-14T08:28:16;9.20;99.90
17425;DHT22;8830;50.978;5.058;2023-03-14T08:30:45;9.30;99.90
17425;DHT22;8830;50.978;5.058;2023-03-14T08:33:15;9.20;99.90
17425;DHT22;8830;50.978;5.058;2023-03-14T08:35:42;9.40;99.90
17425;DHT22;8830;50.978;5.058;2023-03-14T08:38:10;9.40;99.90
17425;DHT22;8830;50.978;5.058;2023-03-14T08:40:37;9.50;99.90
17425;DHT22;8830;50.978;5.058;2023-03-14T08:43:04;9.50;99.90
17425;DHT22;8830;50.978;5.058;2023-03-14T08:45:33;9.40;99.90
17425;DHT22;8830;50.978;5.058;2023-03-14T08:48:01;9.40;99.90
17425;DHT22;8830;50.978;5.058;2023-03-14T08:50:28;9.50;99.90
17425;DHT22;8830;50.978;5.058;2023-03-14T08:52:55;9.50;99.90
17425;DHT22;8830;50.978;5.058;2023-03-14T08:55:25;9.40;99.90
17425;DHT22;8830;50.978;5.058;2023-03-14T08:57:53;9.50;99.90
17425;DHT22;8830;50.978;5.058;2023-03-14T09:00:20;9.70;99.90
17425;DHT22;8830;50.978;5.058;2023-03-14T09:02:47;9.80;99.90
17425;DHT22;8830;50.978;5.058;2023-03-14T09:05:16;10.10;99.90
17425;DHT22;8830;50.978;5.058;2023-03-14T09:07:43;10.40;99.90
17425;DHT22;8830;50.978;5.058;2023-03-14T09:10:11;10.50;99.90
17425;DHT22;8830;50.978;5.058;2023-03-14T09:12:38;10.70;99.90
17425;DHT22;8830;50.978;5.058;2023-03-14T09:15:06;10.70;99.90
17425;DHT22;8830;50.978;5.058;2023-03-14T09:17:33;10.60;99.90
17425;DHT22;8830;50.978;5.058;2023-03-14T09:20:01;10.50;99.90
17425;DHT22;8830;50.978;5.058;2023-03-14T09:22:32;10.30;99.90
17425;DHT22;8830;50.978;5.058;2023-03-14T09:25:01;10.30;99.90
17425;DHT22;8830;50.978;5.058;2023-03-14T09:27:28;10.20;99.90
17425;DHT22;8830;50.978;5.058;2023-03-14T09:29:55;10.10;99.90
17425;DHT22;8830;50.978;5.058;2023-03-14T09:32:22;9.90;99.90
17425;DHT22;8830;50.978;5.058;2023-03-14T09:34:49;9.80;99.90
17425;DHT22;8830;50.978;5.058;2023-03-14T09:37:16;9.80;99.90
17425;DHT22;8830;50.978;5.058;2023-03-14T09:39:44;9.70;99.90
17425;DHT22;8830;50.978;5.058;2023-03-14T09:42:14;9.60;99.90
17425;DHT22;8830;50.978;5.058;2023-03-14T09:44:53;9.60;99.90
17425;DHT22;8830;50.978;5.058;2023-03-14T09:47:21;9.70;99.90
17425;DHT22;8830;50.978;5.058;2023-03-14T09:49:50;9.70;99.90
17425;DHT22;8830;50.978;5.058;2023-03-14T09:52:20;9.70;99.90
17425;DHT22;8830;50.978;5.058;2023-03-14T09:54:53;9.70;99.90
17425;DHT22;8830;50.978;5.058;2023-03-14T09:57:24;9.90;99.90
17425;DHT22;8830;50.978;5.058;2023-03-14T09:59:53;10.10;99.90
17425;DHT22;8830;50.978;5.058;2023-03-14T10:02:22;10.20;99.90
17425;DHT22;8830;50.978;5.058;2023-03-14T10:04:51;10.20;99.90
17425;DHT22;8830;50.978;5.058;2023-03-14T10:07:21;10.30;99.90
17425;DHT22;8830;50.978;5.058;2023-03-14T10:09:51;10.40;99.90
17425;DHT22;8830;50.978;5.058;2023-03-14T10:12:19;10.20;99.90
17425;DHT22;8830;50.978;5.058;2023-03-14T10:14:49;10.00;99.90
17425;DHT22;8830;50.978;5.058;2023-03-14T10:17:18;9.90;99.90
17425;DHT22;8830;50.978;5.058;2023-03-14T10:19:54;9.80;99.90
17425;DHT22;8830;50.978;5.058;2023-03-14T10:22:22;9.80;99.90
17425;DHT22;8830;50.978;5.058;2023-03-14T10:24:54;9.70;99.90
17425;DHT22;8830;50.978;5.058;2023-03-14T10:27:28;9.50;99.90
17425;DHT22;8830;50.978;5.058;2023-03-14T10:29:56;9.50;99.90
17425;DHT22;8830;50.978;5.058;2023-03-14T10:32:31;9.50;99.90
17425;DHT22;8830;50.978;5.058;2023-03-14T10:35:19;9.30;99.90
17425;DHT22;8830;50.978;5.058;2023-03-14T10:37:56;9.20;99.90
17425;DHT22;8830;50.978;5.058;2023-03-14T10:40:27;9.20;99.90
17425;DHT22;8830;50.978;5.058;2023-03-14T10:42:56;9.30;99.90
17425;DHT22;8830;50.978;5.058;2023-03-14T10:45:33;9.80;99.90
17425;DHT22;8830;50.978;5.058;2023-03-14T10:48:16;9.40;99.90
17425;DHT22;8830;50.978;5.058;2023-03-14T10:50:48;9.60;99.90
17425;DHT22;8830;50.978;5.058;2023-03-14T10:53:17;9.50;99.90
17425;DHT22;8830;50.978;5.058;2023-03-14T10:55:48;9.60;99.90
17425;DHT22;8830;50.978;5.058;2023-03-14T10:58:21;9.40;99.90
17425;DHT22;8830;50.978;5.058;2023-03-14T11:00:56;9.30;99.90
17425;DHT22;8830;50.978;5.058;2023-03-14T11:03:26;9.20;99.90
17425;DHT22;8830;50.978;5.058;2023-03-14T11:05:57;9.30;99.90
17425;DHT22;8830;50.978;5.058;2023-03-14T11:08:27;9.40;99.90
17425;DHT22;8830;50.978;5.058;2023-03-14T11:11:08;9.30;99.90
17425;DHT22;8830;50.978;5.058;2023-03-14T11:13:42;9.30;99.90
17425;DHT22;8830;50.978;5.058;2023-03-14T11:16:16;9.30;99.90
17425;DHT22;8830;50.978;5.058;2023-03-14T11:18:55;9.40;99.90
17425;DHT22;8830;50.978;5.058;2023-03-14T11:21:30;9.40;99.90
17425;DHT22;8830;50.978;5.058;2023-03-14T11:24:12;9.60;99.90
17425;DHT22;8830;50.978;5.058;2023-03-14T11:26:48;9.40;99.90
17425;DHT22;8830;50.978;5.058;2023-03-14T11:29:22;9.20;99.90
17425;DHT22;8830;50.978;5.058;2023-03-14T11:31:56;9.10;99.90
17425;DHT22;8830;50.978;5.058;2023-03-14T11:34:29;9.10;99.90
17425;DHT22;8830;50.978;5.058;2023-03-14T11:37:01;9.20;99.90
17425;DHT22;8830;50.978;5.058;2023-03-14T11:39:38;9.30;99.90
17425;DHT22;8830;50.978;5.058;2023-03-14T11:42:11;9.50;99.90
17425;DHT22;8830;50.978;5.058;2023-03-14T11:44:40;9.80;99.90
17425;DHT22;8830;50.978;5.058;2023-03-14T11:47:10;9.80;99.90
17425;DHT22;8830;50.978;5.058;2023-03-14T11:49:42;10.00;99.90
17425;DHT22;8830;50.978;5.058;2023-03-14T11:52:14;10.20;99.90
17425;DHT22;8830;50.978;5.058;2023-03-14T11:54:46;10.40;99.90
17425;DHT22;8830;50.978;5.058;2023-03-14T11:57:18;10.60;99.90
17425;DHT22;8830;50.978;5.058;2023-03-14T11:59:51;10.70;99.90
17425;DHT22;8830;50.978;5.058;2023-03-14T12:02:24;10.90;99.90
17425;DHT22;8830;50.978;5.058;2023-03-14T12:05:20;11.20;99.90
17425;DHT22;8830;50.978;5.058;2023-03-14T12:08:11;11.40;99.90
17425;DHT22;8830;50.978;5.058;2023-03-14T12:10:47;11.90;99.90
17425;DHT22;8830;50.978;5.058;2023-03-14T12:13:17;11.90;99.90
17425;DHT22;8830;50.978;5.058;2023-03-14T12:15:48;12.00;99.90
17425;DHT22;8830;50.978;5.058;2023-03-14T12:18:20;12.80;99.90
17425;DHT22;8830;50.978;5.058;2023-03-14T12:20:51;11.40;99.90
17425;DHT22;8830;50.978;5.058;2023-03-14T12:23:20;11.20;99.90
17425;DHT22;8830;50.978;5.058;2023-03-14T12:25:47;11.00;99.90
17425;DHT22;8830;50.978;5.058;2023-03-14T12:28:22;10.50;99.90
17425;DHT22;8830;50.978;5.058;2023-03-14T12:30:56;9.50;99.90
17425;DHT22;8830;50.978;5.058;2023-03-14T12:33:45;8.60;99.90
17425;DHT22;8830;50.978;5.058;2023-03-14T12:39:33;7.50;99.90
17425;DHT22;8830;50.978;5.058;2023-03-14T12:42:04;7.50;99.90
17425;DHT22;8830;50.978;5.058;2023-03-14T12:44:46;7.70;99.90
17425;DHT22;8830;50.978;5.058;2023-03-14T12:47:47;8.00;99.90
17425;DHT22;8830;50.978;5.058;2023-03-14T12:50:28;7.70;99.90
17425;DHT22;8830;50.978;5.058;2023-03-14T12:53:24;8.20;99.90
17425;DHT22;8830;50.978;5.058;2023-03-14T12:55:58;8.20;99.90
17425;DHT22;8830;50.978;5.058;2023-03-14T12:58:31;8.40;99.90
17425;DHT22;8830;50.978;5.058;2023-03-14T13:01:00;8.50;99.90
17425;DHT22;8830;50.978;5.058;2023-03-14T13:03:37;8.50;99.90
17425;DHT22;8830;50.978;5.058;2023-03-14T13:06:12;8.50;99.90
17425;DHT22;8830;50.978;5.058;2023-03-14T13:08:42;8.50;99.90
17425;DHT22;8830;50.978;5.058;2023-03-14T13:11:12;8.40;99.90
17425;DHT22;8830;50.978;5.058;2023-03-14T13:13:45;8.40;99.90
17425;DHT22;8830;50.978;5.058;2023-03-14T13:16:16;8.40;99.90
17425;DHT22;8830;50.978;5.058;2023-03-14T13:18:45;8.40;99.90
17425;DHT22;8830;50.978;5.058;2023-03-14T13:21:16;8.40;99.90
17425;DHT22;8830;50.978;5.058;2023-03-14T13:23:58;8.40;99.90
17425;DHT22;8830;50.978;5.058;2023-03-14T13:26:32;8.50;99.90
17425;DHT22;8830;50.978;5.058;2023-03-14T13:29:09;8.70;99.90
17425;DHT22;8830;50.978;5.058;2023-03-14T13:31:36;9.40;99.90
17425;DHT22;8830;50.978;5.058;2023-03-14T13:34:09;9.00;99.90
17425;DHT22;8830;50.978;5.058;2023-03-14T13:36:38;9.20;99.90
17425;DHT22;8830;50.978;5.058;2023-03-14T13:39:10;9.30;99.90
17425;DHT22;8830;50.978;5.058;2023-03-14T13:41:39;9.50;99.90
17425;DHT22;8830;50.978;5.058;2023-03-14T13:44:08;9.50;99.90
17425;DHT22;8830;50.978;5.058;2023-03-14T13:46:36;9.70;99.90
17425;DHT22;8830;50.978;5.058;2023-03-14T13:49:05;9.80;99.90
17425;DHT22;8830;50.978;5.058;2023-03-14T13:51:33;9.80;99.90
17425;DHT22;8830;50.978;5.058;2023-03-14T13:54:02;9.70;99.90
17425;DHT22;8830;50.978;5.058;2023-03-14T13:56:31;9.70;99.90
17425;DHT22;8830;50.978;5.058;2023-03-14T13:58:58;9.60;99.90
17425;DHT22;8830;50.978;5.058;2023-03-14T14:01:27;9.60;99.90
17425;DHT22;8830;50.978;5.058;2023-03-14T14:03:58;9.50;99.90
17425;DHT22;8830;50.978;5.058;2023-03-14T14:06:31;9.40;99.90
17425;DHT22;8830;50.978;5.058;2023-03-14T14:09:02;9.50;99.90
17425;DHT22;8830;50.978;5.058;2023-03-14T14:11:38;9.60;99.90
17425;DHT22;8830;50.978;5.058;2023-03-14T14:14:12;9.50;99.90
17425;DHT22;8830;50.978;5.058;2023-03-14T14:16:41;9.60;99.90
17425;DHT22;8830;50.978;5.058;2023-03-14T14:19:09;9.60;99.90
17425;DHT22;8830;50.978;5.058;2023-03-14T14:21:36;9.70;99.90
17425;DHT22;8830;50.978;5.058;2023-03-14T14:24:05;9.70;99.90
17425;DHT22;8830;50.978;5.058;2023-03-14T14:26:32;9.80;99.90
17425;DHT22;8830;50.978;5.058;2023-03-14T14:29:02;9.90;99.90
17425;DHT22;8830;50.978;5.058;2023-03-14T14:31:32;9.80;99.90
17425;DHT22;8830;50.978;5.058;2023-03-14T14:34:00;9.70;99.90
17425;DHT22;8830;50.978;5.058;2023-03-14T14:36:29;9.60;99.90
17425;DHT22;8830;50.978;5.058;2023-03-14T14:39:00;9.50;99.90
17425;DHT22;8830;50.978;5.058;2023-03-14T14:41:33;9.60;99.90
17425;DHT22;8830;50.978;5.058;2023-03-14T14:44:04;10.50;99.90
17425;DHT22;8830;50.978;5.058;2023-03-14T14:46:33;9.70;99.90
17425;DHT22;8830;50.978;5.058;2023-03-14T14:49:03;9.70;99.90
17425;DHT22;8830;50.978;5.058;2023-03-14T14:51:33;9.90;99.90
17425;DHT22;8830;50.978;5.058;2023-03-14T14:54:04;9.60;99.90
17425;DHT22;8830;50.978;5.058;2023-03-14T14:56:36;9.70;99.90
17425;DHT22;8830;50.978;5.058;2023-03-14T14:59:05;9.70;99.90
17425;DHT22;8830;50.978;5.058;2023-03-14T15:01:34;10.90;99.90
17425;DHT22;8830;50.978;5.058;2023-03-14T15:04:09;9.50;99.90
17425;DHT22;8830;50.978;5.058;2023-03-14T15:06:38;9.50;99.90
17425;DHT22;8830;50.978;5.058;2023-03-14T15:09:05;9.40;99.90
17425;DHT22;8830;50.978;5.058;2023-03-14T15:11:34;9.10;99.90
17425;DHT22;8830;50.978;5.058;2023-03-14T15:14:01;8.90;99.90
17425;DHT22;8830;50.978;5.058;2023-03-14T15:16:30;8.80;99.90
17425;DHT22;8830;50.978;5.058;2023-03-14T15:18:59;8.80;99.90
17425;DHT22;8830;50.978;5.058;2023-03-14T15:21:27;8.70;99.90
17425;DHT22;8830;50.978;5.058;2023-03-14T15:23:55;8.50;99.90
17425;DHT22;8830;50.978;5.058;2023-03-14T15:26:24;8.60;99.90
17425;DHT22;8830;50.978;5.058;2023-03-14T15:28:53;8.60;99.90
17425;DHT22;8830;50.978;5.058;2023-03-14T15:31:20;8.70;99.90
17425;DHT22;8830;50.978;5.058;2023-03-14T15:33:48;8.60;99.90
17425;DHT22;8830;50.978;5.058;2023-03-14T15:36:21;8.50;99.90
17425;DHT22;8830;50.978;5.058;2023-03-14T15:38:48;8.40;99.90
17425;DHT22;8830;50.978;5.058;2023-03-14T15:41:16;8.50;99.90
17425;DHT22;8830;50.978;5.058;2023-03-14T15:43:43;8.60;99.90
17425;DHT22;8830;50.978;5.058;2023-03-14T15:46:12;8.70;99.90
17425;DHT22;8830;50.978;5.058;2023-03-14T15:48:40;8.80;99.90
17425;DHT22;8830;50.978;5.058;2023-03-14T15:51:07;8.80;99.90
17425;DHT22;8830;50.978;5.058;2023-03-14T15:53:35;7.20;99.90
17425;DHT22;8830;50.978;5.058;2023-03-14T15:56:07;8.90;99.90
17425;DHT22;8830;50.978;5.058;2023-03-14T15:58:37;8.80;99.90
17425;DHT22;8830;50.978;5.058;2023-03-14T16:01:06;8.70;99.90
17425;DHT22;8830;50.978;5.058;2023-03-14T16:03:36;8.70;99.90
17425;DHT22;8830;50.978;5.058;2023-03-14T16:06:04;8.80;99.90
17425;DHT22;8830;50.978;5.058;2023-03-14T16:08:33;8.70;99.90
17425;DHT22;8830;50.978;5.058;2023-03-14T16:11:01;8.70;99.90